Irene, South Dakota
Current Conditions -  °F | °C
As of 4:55 PM on Saturday 20 Dec 2014 (Local Time) from KYKN Reporting Station
Overcast Overcast  
Wind Chill: 24°   Ceiling: 600
Heat Index: 32°   Visibility: 5mi
Dew Point: 28°   Wind: 10mph
Humidity: 87%   Direction: 160°SSE
Pressure: 30.03"   Gusts: NA
Location:  43.08°N, 97.16°W
Report Text: KYKN 202255Z AUTO 16009KT 5SM OVC006 00/M02 A3003 RMK AO1
Loading
Personal Weather Stations






























Interactive Weather Map New forecast layout! Learn more

10-Day Weather Forecast

Advertisements
Track Severe Weather on mobile